ELY5138 LCPH-LLBG
Flight info
| Callsign | ELY5138 |
|---|---|
| Flight time | 0h 38m |
| Altitude | 25000 |
| Route | ESERI M42 ANANE Z89 IDAKU L35 PIKOG L609 ZUKKO DCT GODED |
| Aircraft | B738/M-SDE2E3FGHIRWXY/LB1 |
Departure
| Time | 2026-04-22 17:53 |
|---|---|
| Airport | Paphos International Airport (LCPH) |
Arrival
| Time | 2026-04-22 18:31 |
|---|---|
| Airport | Ben Gurion International Airport (LLBG) |
| Time | Latitude | Longitude | Altitude | Speed | Heading |
|---|---|---|---|---|---|
| 2026-04-22 17:31 | 34.71259 | 32.48566 | 43 ft | 0 kts | 155° |
| 2026-04-22 17:44 | 34.71276 | 32.48557 | 43 ft | 4 kts | 152° |
| 2026-04-22 17:45 | 34.71299 | 32.48540 | 42 ft | 4 kts | 141° |
| 2026-04-22 17:45 | 34.71318 | 32.48517 | 40 ft | 4 kts | 124° |
| 2026-04-22 17:45 | 34.71323 | 32.48507 | 39 ft | 1 kts | 119° |
| 2026-04-22 17:48 | 34.71323 | 32.48508 | 39 ft | 0 kts | 119° |
| 2026-04-22 17:49 | 34.71323 | 32.48532 | 39 ft | 7 kts | 72° |
| 2026-04-22 17:49 | 34.71373 | 32.48584 | 43 ft | 11 kts | 55° |
| 2026-04-22 17:49 | 34.71409 | 32.48676 | 41 ft | 13 kts | 65° |
| 2026-04-22 17:49 | 34.71453 | 32.48791 | 43 ft | 17 kts | 65° |
| 2026-04-22 17:50 | 34.71505 | 32.48927 | 41 ft | 17 kts | 65° |
| 2026-04-22 17:50 | 34.71589 | 32.48996 | 43 ft | 14 kts | 22° |
| 2026-04-22 17:50 | 34.71633 | 32.49082 | 44 ft | 14 kts | 108° |
| 2026-04-22 17:50 | 34.71595 | 32.49203 | 41 ft | 18 kts | 110° |
| 2026-04-22 17:51 | 34.71542 | 32.49379 | 38 ft | 25 kts | 110° |
| 2026-04-22 17:51 | 34.71480 | 32.49580 | 39 ft | 25 kts | 110° |
| 2026-04-22 17:51 | 34.71420 | 32.49753 | 37 ft | 17 kts | 133° |
| 2026-04-22 17:51 | 34.71364 | 32.49816 | 38 ft | 10 kts | 94° |
| 2026-04-22 17:52 | 34.71406 | 32.49826 | 38 ft | 9 kts | 290° |
| 2026-04-22 17:52 | 34.71435 | 32.49730 | 38 ft | 25 kts | 291° |
| 2026-04-22 17:52 | 34.71591 | 32.49219 | 42 ft | 104 kts | 290° |
| 2026-04-22 17:52 | 34.71934 | 32.48136 | 120 ft | 162 kts | 292° |
| 2026-04-22 17:53 | 34.72294 | 32.46870 | 1034 ft | 159 kts | 277° |
| 2026-04-22 17:53 | 34.72114 | 32.45532 | 1813 ft | 171 kts | 239° |
| 2026-04-22 17:53 | 34.71144 | 32.44662 | 2528 ft | 186 kts | 196° |
| 2026-04-22 17:53 | 34.69848 | 32.44317 | 3347 ft | 193 kts | 194° |
| 2026-04-22 17:54 | 34.68496 | 32.43961 | 4061 ft | 208 kts | 194° |
| 2026-04-22 17:54 | 34.67028 | 32.43573 | 4580 ft | 222 kts | 194° |
| 2026-04-22 17:54 | 34.65421 | 32.43146 | 4904 ft | 252 kts | 194° |
| 2026-04-22 17:54 | 34.63603 | 32.43073 | 5458 ft | 272 kts | 166° |
| 2026-04-22 17:55 | 34.62411 | 32.43577 | 6080 ft | 276 kts | 159° |
| 2026-04-22 17:55 | 34.60011 | 32.44796 | 7269 ft | 283 kts | 158° |
| 2026-04-22 17:55 | 34.58186 | 32.45740 | 8168 ft | 287 kts | 159° |
| 2026-04-22 17:55 | 34.56327 | 32.46689 | 9059 ft | 292 kts | 159° |
| 2026-04-22 17:56 | 34.54434 | 32.47642 | 9952 ft | 297 kts | 160° |
| 2026-04-22 17:56 | 34.52487 | 32.48610 | 10553 ft | 312 kts | 160° |
| 2026-04-22 17:56 | 34.50381 | 32.49643 | 10750 ft | 340 kts | 160° |
| 2026-04-22 17:56 | 34.48134 | 32.50741 | 11234 ft | 354 kts | 160° |
| 2026-04-22 17:57 | 34.45825 | 32.51868 | 11992 ft | 360 kts | 161° |
| 2026-04-22 17:57 | 34.43487 | 32.53007 | 12816 ft | 364 kts | 161° |
| 2026-04-22 17:57 | 34.41121 | 32.54157 | 13628 ft | 369 kts | 161° |
| 2026-04-22 17:57 | 34.38724 | 32.55319 | 14349 ft | 374 kts | 161° |
| 2026-04-22 17:58 | 34.36300 | 32.56493 | 15098 ft | 377 kts | 161° |
| 2026-04-22 17:58 | 34.33852 | 32.57678 | 15836 ft | 380 kts | 161° |
| 2026-04-22 17:58 | 34.31382 | 32.58871 | 16567 ft | 385 kts | 161° |
| 2026-04-22 17:58 | 34.28884 | 32.60078 | 17273 ft | 389 kts | 161° |
| 2026-04-22 17:59 | 34.26357 | 32.61298 | 17978 ft | 393 kts | 161° |
| 2026-04-22 17:59 | 34.23805 | 32.62529 | 18630 ft | 397 kts | 161° |
| 2026-04-22 17:59 | 34.21224 | 32.63774 | 19228 ft | 401 kts | 161° |
| 2026-04-22 17:59 | 34.18618 | 32.65029 | 19828 ft | 405 kts | 161° |
| 2026-04-22 18:00 | 34.16879 | 32.65867 | 20225 ft | 408 kts | 161° |
| 2026-04-22 18:00 | 34.13331 | 32.67576 | 21010 ft | 413 kts | 161° |
| 2026-04-22 18:00 | 34.10649 | 32.68865 | 21580 ft | 417 kts | 161° |
| 2026-04-22 18:00 | 34.07967 | 32.70251 | 22134 ft | 423 kts | 155° |
| 2026-04-22 18:01 | 34.05402 | 32.72035 | 22678 ft | 428 kts | 150° |
| 2026-04-22 18:01 | 34.02861 | 32.73941 | 23227 ft | 432 kts | 150° |
| 2026-04-22 18:01 | 34.00307 | 32.75891 | 23736 ft | 437 kts | 149° |
| 2026-04-22 18:01 | 33.97733 | 32.77858 | 24172 ft | 440 kts | 150° |
| 2026-04-22 18:02 | 33.95144 | 32.79823 | 24736 ft | 439 kts | 150° |
| 2026-04-22 18:02 | 33.92552 | 32.81776 | 25008 ft | 439 kts | 150° |
| 2026-04-22 18:02 | 33.89971 | 32.83710 | 25008 ft | 436 kts | 150° |
| 2026-04-22 18:02 | 33.87389 | 32.85635 | 25026 ft | 437 kts | 150° |
| 2026-04-22 18:03 | 33.84799 | 32.87560 | 25033 ft | 438 kts | 150° |
| 2026-04-22 18:03 | 33.82210 | 32.89482 | 25030 ft | 438 kts | 150° |
| 2026-04-22 18:03 | 33.79614 | 32.91407 | 25025 ft | 438 kts | 150° |
| 2026-04-22 18:03 | 33.77052 | 32.93306 | 25022 ft | 438 kts | 150° |
| 2026-04-22 18:04 | 33.74460 | 32.95226 | 25022 ft | 438 kts | 150° |
| 2026-04-22 18:04 | 33.71862 | 32.97150 | 25020 ft | 438 kts | 150° |
| 2026-04-22 18:04 | 33.69269 | 32.99068 | 25022 ft | 438 kts | 150° |
| 2026-04-22 18:04 | 33.66674 | 33.00987 | 25022 ft | 438 kts | 150° |
| 2026-04-22 18:05 | 33.64082 | 33.02902 | 25021 ft | 438 kts | 150° |
| 2026-04-22 18:05 | 33.61489 | 33.04816 | 25021 ft | 437 kts | 150° |
| 2026-04-22 18:05 | 33.58899 | 33.06727 | 25020 ft | 437 kts | 150° |
| 2026-04-22 18:05 | 33.56306 | 33.08639 | 25023 ft | 437 kts | 150° |
| 2026-04-22 18:06 | 33.53711 | 33.10551 | 25019 ft | 438 kts | 151° |
| 2026-04-22 18:06 | 33.51116 | 33.12462 | 25022 ft | 438 kts | 150° |
| 2026-04-22 18:06 | 33.48523 | 33.14369 | 25023 ft | 438 kts | 150° |
| 2026-04-22 18:06 | 33.45930 | 33.16276 | 25021 ft | 438 kts | 151° |
| 2026-04-22 18:07 | 33.44209 | 33.17540 | 25019 ft | 438 kts | 151° |
| 2026-04-22 18:07 | 33.40867 | 33.19994 | 25021 ft | 438 kts | 151° |
| 2026-04-22 18:07 | 33.38272 | 33.21898 | 25022 ft | 438 kts | 151° |
| 2026-04-22 18:07 | 33.35677 | 33.23801 | 25023 ft | 438 kts | 151° |
| 2026-04-22 18:08 | 33.33080 | 33.25703 | 25021 ft | 438 kts | 151° |
| 2026-04-22 18:08 | 33.30478 | 33.27608 | 25021 ft | 438 kts | 151° |
| 2026-04-22 18:08 | 33.27883 | 33.29506 | 25023 ft | 438 kts | 151° |
| 2026-04-22 18:08 | 33.25283 | 33.31407 | 25023 ft | 438 kts | 151° |
| 2026-04-22 18:09 | 33.22705 | 33.33292 | 25009 ft | 429 kts | 151° |
| 2026-04-22 18:09 | 33.20190 | 33.35131 | 25009 ft | 421 kts | 151° |
| 2026-04-22 18:09 | 33.17701 | 33.36947 | 25018 ft | 419 kts | 151° |
| 2026-04-22 18:09 | 33.15206 | 33.38765 | 24877 ft | 422 kts | 151° |
| 2026-04-22 18:10 | 33.12708 | 33.40584 | 24686 ft | 416 kts | 151° |
| 2026-04-22 18:10 | 33.10257 | 33.42369 | 24370 ft | 411 kts | 151° |
| 2026-04-22 18:10 | 33.07830 | 33.44136 | 23995 ft | 407 kts | 151° |
| 2026-04-22 18:10 | 33.05418 | 33.45889 | 23565 ft | 405 kts | 151° |
| 2026-04-22 18:11 | 33.03052 | 33.47608 | 23074 ft | 403 kts | 151° |
| 2026-04-22 18:11 | 33.00667 | 33.49341 | 22606 ft | 400 kts | 151° |
| 2026-04-22 18:11 | 32.98298 | 33.51060 | 22153 ft | 397 kts | 151° |
| 2026-04-22 18:11 | 32.95948 | 33.52765 | 21708 ft | 394 kts | 151° |
| 2026-04-22 18:12 | 32.93614 | 33.54457 | 21284 ft | 391 kts | 151° |
| 2026-04-22 18:12 | 32.91300 | 33.56133 | 20858 ft | 388 kts | 151° |
| 2026-04-22 18:12 | 32.89744 | 33.57260 | 20568 ft | 387 kts | 151° |
| 2026-04-22 18:12 | 32.86711 | 33.59455 | 20013 ft | 383 kts | 151° |
| 2026-04-22 18:13 | 32.84440 | 33.61097 | 19594 ft | 381 kts | 151° |
| 2026-04-22 18:13 | 32.82249 | 33.62862 | 19167 ft | 381 kts | 143° |
| 2026-04-22 18:13 | 32.80322 | 33.65022 | 18777 ft | 380 kts | 136° |
| 2026-04-22 18:13 | 32.78499 | 33.67287 | 18368 ft | 378 kts | 135° |
| 2026-04-22 18:14 | 32.76702 | 33.69555 | 17899 ft | 376 kts | 135° |
| 2026-04-22 18:14 | 32.74911 | 33.71810 | 17448 ft | 374 kts | 135° |
| 2026-04-22 18:14 | 32.73721 | 33.73299 | 17155 ft | 372 kts | 135° |
| 2026-04-22 18:14 | 32.71938 | 33.75516 | 16732 ft | 370 kts | 135° |
| 2026-04-22 18:15 | 32.70163 | 33.77713 | 16314 ft | 367 kts | 135° |
| 2026-04-22 18:15 | 32.68397 | 33.79891 | 15901 ft | 365 kts | 135° |
| 2026-04-22 18:15 | 32.66641 | 33.82053 | 15486 ft | 363 kts | 135° |
| 2026-04-22 18:15 | 32.64944 | 33.84254 | 15222 ft | 358 kts | 131° |
| 2026-04-22 18:16 | 32.63425 | 33.86534 | 15109 ft | 350 kts | 128° |
| 2026-04-22 18:16 | 32.61960 | 33.88848 | 14691 ft | 350 kts | 128° |
| 2026-04-22 18:16 | 32.60512 | 33.91166 | 14308 ft | 349 kts | 127° |
| 2026-04-22 18:16 | 32.59064 | 33.93473 | 13917 ft | 348 kts | 128° |
| 2026-04-22 18:17 | 32.57610 | 33.95771 | 13482 ft | 348 kts | 128° |
| 2026-04-22 18:17 | 32.56155 | 33.98055 | 13059 ft | 346 kts | 128° |
| 2026-04-22 18:17 | 32.54703 | 34.00324 | 12651 ft | 345 kts | 128° |
| 2026-04-22 18:17 | 32.53252 | 34.02580 | 12248 ft | 343 kts | 128° |
| 2026-04-22 18:18 | 32.51810 | 34.04819 | 11853 ft | 341 kts | 128° |
| 2026-04-22 18:18 | 32.50374 | 34.07045 | 11468 ft | 339 kts | 128° |
| 2026-04-22 18:18 | 32.48943 | 34.09261 | 11079 ft | 338 kts | 128° |
| 2026-04-22 18:18 | 32.47519 | 34.11463 | 10690 ft | 336 kts | 128° |
| 2026-04-22 18:19 | 32.46108 | 34.13644 | 10464 ft | 329 kts | 128° |
| 2026-04-22 18:19 | 32.44756 | 34.15734 | 10317 ft | 320 kts | 128° |
| 2026-04-22 18:19 | 32.43419 | 34.17799 | 10170 ft | 311 kts | 128° |
| 2026-04-22 18:19 | 32.42118 | 34.19807 | 10043 ft | 303 kts | 129° |
| 2026-04-22 18:20 | 32.40846 | 34.21768 | 9782 ft | 300 kts | 129° |
| 2026-04-22 18:20 | 32.39579 | 34.23721 | 9479 ft | 298 kts | 129° |
| 2026-04-22 18:20 | 32.38321 | 34.25658 | 9179 ft | 296 kts | 129° |
| 2026-04-22 18:20 | 32.37070 | 34.27584 | 8881 ft | 294 kts | 129° |
| 2026-04-22 18:21 | 32.35826 | 34.29498 | 8586 ft | 293 kts | 129° |
| 2026-04-22 18:21 | 32.34590 | 34.31399 | 8300 ft | 291 kts | 129° |
| 2026-04-22 18:21 | 32.33360 | 34.33290 | 8010 ft | 289 kts | 129° |
| 2026-04-22 18:21 | 32.32135 | 34.35172 | 7716 ft | 288 kts | 129° |
| 2026-04-22 18:22 | 32.30916 | 34.37044 | 7428 ft | 286 kts | 129° |
| 2026-04-22 18:22 | 32.29704 | 34.38905 | 7144 ft | 285 kts | 129° |
| 2026-04-22 18:22 | 32.28497 | 34.40756 | 6864 ft | 284 kts | 129° |
| 2026-04-22 18:22 | 32.27301 | 34.42591 | 6585 ft | 283 kts | 129° |
| 2026-04-22 18:23 | 32.26104 | 34.44427 | 6293 ft | 281 kts | 129° |
| 2026-04-22 18:23 | 32.24912 | 34.46253 | 5994 ft | 280 kts | 129° |
| 2026-04-22 18:23 | 32.23727 | 34.48066 | 5711 ft | 278 kts | 129° |
| 2026-04-22 18:24 | 32.21384 | 34.51653 | 5163 ft | 274 kts | 128° |
| 2026-04-22 18:24 | 32.20225 | 34.53427 | 4892 ft | 272 kts | 129° |
| 2026-04-22 18:24 | 32.17976 | 34.56864 | 4652 ft | 251 kts | 128° |
| 2026-04-22 18:25 | 32.16936 | 34.58454 | 4499 ft | 238 kts | 128° |
| 2026-04-22 18:25 | 32.15949 | 34.59961 | 4361 ft | 226 kts | 128° |
| 2026-04-22 18:25 | 32.15013 | 34.61388 | 4260 ft | 213 kts | 128° |
| 2026-04-22 18:26 | 32.13299 | 34.64000 | 4042 ft | 189 kts | 128° |
| 2026-04-22 18:26 | 32.12555 | 34.65248 | 3837 ft | 184 kts | 122° |
| 2026-04-22 18:26 | 32.11884 | 34.66509 | 3643 ft | 180 kts | 120° |
| 2026-04-22 18:26 | 32.11234 | 34.67755 | 3467 ft | 177 kts | 120° |
| 2026-04-22 18:27 | 32.10587 | 34.69004 | 3306 ft | 179 kts | 119° |
| 2026-04-22 18:27 | 32.09927 | 34.70277 | 3112 ft | 184 kts | 120° |
| 2026-04-22 18:27 | 32.09269 | 34.71542 | 3033 ft | 179 kts | 118° |
| 2026-04-22 18:27 | 32.08611 | 34.72810 | 2820 ft | 183 kts | 119° |
| 2026-04-22 18:28 | 32.07945 | 34.74093 | 2577 ft | 184 kts | 118° |
| 2026-04-22 18:28 | 32.07282 | 34.75372 | 2337 ft | 182 kts | 118° |
| 2026-04-22 18:28 | 32.06640 | 34.76608 | 2103 ft | 171 kts | 118° |
| 2026-04-22 18:28 | 32.06038 | 34.77766 | 1901 ft | 158 kts | 117° |
| 2026-04-22 18:29 | 32.05460 | 34.78883 | 1668 ft | 160 kts | 117° |
| 2026-04-22 18:29 | 32.04887 | 34.79991 | 1451 ft | 157 kts | 117° |
| 2026-04-22 18:29 | 32.04317 | 34.81073 | 1265 ft | 155 kts | 119° |
| 2026-04-22 18:29 | 32.03734 | 34.82144 | 1063 ft | 155 kts | 119° |
| 2026-04-22 18:30 | 32.03357 | 34.82854 | 936 ft | 153 kts | 118° |
| 2026-04-22 18:30 | 32.02064 | 34.85399 | 422 ft | 149 kts | 118° |
| 2026-04-22 18:30 | 32.01538 | 34.86434 | 204 ft | 148 kts | 117° |
| 2026-04-22 18:31 | 32.01023 | 34.87450 | 118 ft | 129 kts | 121° |
| 2026-04-22 18:31 | 32.00665 | 34.88138 | 117 ft | 67 kts | 121° |
| 2026-04-22 18:31 | 32.00507 | 34.88443 | 121 ft | 32 kts | 122° |
| 2026-04-22 18:31 | 32.00397 | 34.88584 | 119 ft | 23 kts | 141° |
| 2026-04-22 18:32 | 32.00286 | 34.88661 | 119 ft | 13 kts | 155° |
| 2026-04-22 18:32 | 32.00204 | 34.88701 | 117 ft | 13 kts | 160° |
| 2026-04-22 18:32 | 32.00120 | 34.88697 | 118 ft | 10 kts | 206° |
| 2026-04-22 18:32 | 32.00102 | 34.88630 | 119 ft | 10 kts | 298° |
| 2026-04-22 18:33 | 32.00135 | 34.88560 | 118 ft | 10 kts | 298° |
| 2026-04-22 18:33 | 32.00168 | 34.88492 | 115 ft | 9 kts | 304° |
| 2026-04-22 18:33 | 32.00212 | 34.88416 | 119 ft | 13 kts | 303° |
| 2026-04-22 18:33 | 32.00260 | 34.88328 | 117 ft | 13 kts | 302° |
| 2026-04-22 18:34 | 32.00306 | 34.88239 | 119 ft | 13 kts | 301° |
| 2026-04-22 18:34 | 32.00359 | 34.88136 | 116 ft | 17 kts | 301° |
| 2026-04-22 18:34 | 32.00420 | 34.88017 | 118 ft | 17 kts | 301° |
| 2026-04-22 18:34 | 32.00479 | 34.87905 | 118 ft | 13 kts | 302° |
| 2026-04-22 18:35 | 32.00457 | 34.87826 | 119 ft | 12 kts | 211° |
| 2026-04-22 18:35 | 32.00388 | 34.87776 | 116 ft | 12 kts | 211° |
| 2026-04-22 18:35 | 32.00314 | 34.87723 | 119 ft | 13 kts | 211° |
| 2026-04-22 18:35 | 32.00236 | 34.87667 | 118 ft | 13 kts | 211° |
| 2026-04-22 18:36 | 32.00206 | 34.87600 | 119 ft | 9 kts | 289° |
| 2026-04-22 18:36 | 32.00239 | 34.87534 | 116 ft | 9 kts | 303° |
| 2026-04-22 18:36 | 32.00285 | 34.87510 | 117 ft | 6 kts | 343° |
| 2026-04-22 18:36 | 32.00299 | 34.87505 | 119 ft | 0 kts | 343° |